createdAt,value
2019-02-11T00:00:51.721Z,72.3
2019-02-11T00:01:51.600Z,72.4
2019-02-11T00:02:51.526Z,72.5
2019-02-11T00:04:00.479Z,72.5
2019-02-11T00:05:00.370Z,72.6
2019-02-11T00:06:00.233Z,72.5
2019-02-11T00:07:00.121Z,72.3
2019-02-11T00:08:00.021Z,72.5
2019-02-11T00:08:59.906Z,72.6
2019-02-11T00:09:59.778Z,72.7
2019-02-11T00:11:00.374Z,72.9
2019-02-11T00:12:00.283Z,72.9
2019-02-11T00:13:00.199Z,72.9
2019-02-11T00:14:00.524Z,73
2019-02-11T00:15:00.424Z,72.9
2019-02-11T00:16:00.304Z,73.1
2019-02-11T00:17:00.191Z,72.9
2019-02-11T00:18:00.089Z,73
2019-02-11T00:18:59.982Z,72.9
2019-02-11T00:19:59.867Z,73
2019-02-11T00:20:59.957Z,73.1
2019-02-11T00:21:59.851Z,73.1
2019-02-11T00:22:59.753Z,73
2019-02-11T00:24:00.093Z,73.2
2019-02-11T00:24:59.994Z,73.4
2019-02-11T00:25:59.910Z,73.2
2019-02-11T00:26:59.795Z,73.4
2019-02-11T00:27:59.710Z,73.2
2019-02-11T00:28:59.598Z,73.2
2019-02-11T00:29:59.467Z,73.2
2019-02-11T00:30:59.343Z,73.2
2019-02-11T00:31:59.250Z,73.1
2019-02-11T00:32:59.543Z,73.1
2019-02-11T00:34:00.256Z,73.2
2019-02-11T00:35:00.277Z,73.3
2019-02-11T00:36:00.249Z,73.6
2019-02-11T00:37:00.143Z,73.6
2019-02-11T00:38:00.038Z,73.4
2019-02-11T00:38:59.904Z,73.6
2019-02-11T00:39:59.785Z,73.7
2019-02-11T00:40:59.665Z,73.6
2019-02-11T00:41:59.557Z,73.8
2019-02-11T00:42:59.452Z,73.8
2019-02-11T00:43:59.763Z,73.9
2019-02-11T00:44:59.648Z,73.9
2019-02-11T00:45:59.551Z,74
2019-02-11T00:46:59.513Z,73.8
2019-02-11T00:47:59.421Z,74.5
2019-02-11T00:48:59.308Z,73.8
2019-02-11T00:49:59.191Z,73.6
2019-02-11T00:50:59.075Z,73.8
2019-02-11T00:51:58.967Z,73.6
2019-02-11T00:52:58.867Z,73.3
2019-02-11T00:53:59.161Z,73.4
2019-02-11T00:54:59.033Z,73.2
2019-02-11T00:55:58.907Z,73.4
2019-02-11T00:56:58.791Z,73.5
2019-02-11T00:57:58.702Z,73.3
2019-02-11T00:58:58.595Z,73.3
2019-02-11T00:59:58.519Z,73.3
2019-02-11T01:00:58.447Z,73.2
2019-02-11T01:01:58.340Z,73.4
2019-02-11T01:02:58.249Z,73.5
2019-02-11T01:03:58.567Z,73.6
2019-02-11T01:04:58.452Z,73.3
2019-02-11T01:05:58.346Z,73.3
2019-02-11T01:06:58.250Z,73.2
2019-02-11T01:07:58.149Z,73.5
2019-02-11T01:08:58.023Z,74
2019-02-11T01:09:57.918Z,73.8
2019-02-11T01:10:57.862Z,73.8
2019-02-11T01:11:57.819Z,73.8
2019-02-11T01:12:57.723Z,74
2019-02-11T01:13:58.160Z,74.2
2019-02-11T01:14:58.061Z,74.2
2019-02-11T01:15:58.013Z,74
2019-02-11T01:16:57.911Z,74.2
2019-02-11T01:17:57.836Z,74.5
2019-02-11T01:18:57.723Z,74.5
2019-02-11T01:19:57.637Z,74.7
2019-02-11T01:20:57.542Z,74.5
2019-02-11T01:21:57.416Z,74.5
2019-02-11T01:22:57.318Z,74.6
2019-02-11T01:23:57.650Z,74.6
2019-02-11T01:24:57.531Z,74.5
2019-02-11T01:25:57.426Z,74.6
2019-02-11T01:26:57.324Z,74.7
2019-02-11T01:27:57.208Z,75
2019-02-11T01:28:57.079Z,75.1
2019-02-11T01:29:56.985Z,75
2019-02-11T01:30:56.861Z,75.3
2019-02-11T01:31:56.740Z,75.3
2019-02-11T01:32:56.623Z,75.4
2019-02-11T01:33:56.922Z,75.4
2019-02-11T01:34:56.884Z,75.7
2019-02-11T01:35:56.784Z,75.6
2019-02-11T01:36:56.668Z,75.6
2019-02-11T01:37:56.541Z,75.5
2019-02-11T01:38:56.421Z,75.6
2019-02-11T01:39:56.289Z,75.6
2019-02-11T01:40:56.183Z,75.6
2019-02-11T01:41:56.091Z,75.6
2019-02-11T01:42:55.960Z,75.6
2019-02-11T01:43:56.244Z,75.6
2019-02-11T01:44:56.140Z,75.4
2019-02-11T01:45:56.049Z,75.4
2019-02-11T01:46:55.923Z,75.4
2019-02-11T01:47:55.806Z,75.6
2019-02-11T01:48:55.683Z,75.4
2019-02-11T01:49:55.570Z,75.4
2019-02-11T01:50:55.467Z,75.5
2019-02-11T01:51:55.356Z,75.7
2019-02-11T01:52:55.247Z,75.8
2019-02-11T01:53:55.549Z,75.9
2019-02-11T01:54:55.420Z,76
2019-02-11T01:55:55.298Z,76.1
2019-02-11T01:56:55.212Z,76.1
2019-02-11T01:57:55.092Z,76
2019-02-11T01:58:54.968Z,76
2019-02-11T01:59:54.840Z,76.1
2019-02-11T02:00:54.738Z,76.1
2019-02-11T02:01:54.656Z,76.3
2019-02-11T02:02:54.544Z,76.7
2019-02-11T02:03:54.846Z,76.9
2019-02-11T02:04:54.732Z,77
2019-02-11T02:05:54.626Z,77.1
2019-02-11T02:06:54.506Z,77.2
2019-02-11T02:07:54.420Z,77.4
2019-02-11T02:08:54.316Z,77.4
2019-02-11T02:09:54.244Z,77.4
2019-02-11T02:10:54.128Z,77.3
2019-02-11T02:11:53.996Z,77.4
2019-02-11T02:12:53.888Z,77.4
2019-02-11T02:13:54.193Z,77.6
2019-02-11T02:14:54.076Z,77.6
2019-02-11T02:15:53.948Z,77.6
2019-02-11T02:16:53.843Z,77.6
2019-02-11T02:17:53.774Z,77.5
2019-02-11T02:18:53.644Z,77.7
2019-02-11T02:19:53.529Z,77.7
2019-02-11T02:20:53.432Z,77.8
2019-02-11T02:21:53.306Z,77.7
2019-02-11T02:22:53.179Z,78.1
2019-02-11T02:23:53.524Z,77.9
2019-02-11T02:33:51.466Z,75.6
2019-02-11T02:34:51.377Z,76.4
2019-02-11T02:35:51.262Z,76.9
2019-02-11T02:36:51.169Z,76.9
2019-02-11T02:37:51.079Z,77.2
2019-02-11T02:38:51.003Z,77.5
2019-02-11T02:39:50.963Z,77.6
2019-02-11T02:40:50.882Z,78
2019-02-11T02:41:50.814Z,78.1
2019-02-11T02:42:50.712Z,78.2
2019-02-11T02:43:56.494Z,78.3
2019-02-11T02:44:56.417Z,78.6
2019-02-11T02:45:56.307Z,78.5
2019-02-11T02:46:56.199Z,78.7
2019-02-11T02:47:56.099Z,78.8
2019-02-11T02:48:55.994Z,78.9
2019-02-11T02:49:55.879Z,79
2019-02-11T02:50:55.782Z,79.1
2019-02-11T02:51:55.671Z,79.6
2019-02-11T02:52:55.567Z,80
2019-02-11T02:53:55.894Z,80.3
2019-02-11T03:13:52.168Z,77.5
2019-02-11T03:14:52.050Z,78.3
2019-02-11T03:15:51.943Z,78.9
2019-02-11T03:16:51.826Z,79.3
2019-02-11T03:17:51.760Z,79.5
2019-02-11T03:18:51.645Z,80
2019-02-11T03:19:51.537Z,79.7
2019-02-11T03:20:51.450Z,79.7
2019-02-11T03:21:51.409Z,79.8
2019-02-11T03:22:51.330Z,80.1
2019-02-11T03:23:51.740Z,80.1
2019-02-11T03:24:51.635Z,80.1
2019-02-11T03:25:51.535Z,80.4
2019-02-11T03:26:51.434Z,80.5
2019-02-11T03:27:51.333Z,81.1
2019-02-11T03:28:51.361Z,80.5
2019-02-11T03:29:51.269Z,81.3
2019-02-11T03:30:51.200Z,80.8
2019-02-11T03:31:51.153Z,80.6
2019-02-11T03:32:51.143Z,80.8
2019-02-11T03:33:51.673Z,80.8
2019-02-11T03:34:51.637Z,80.6
2019-02-11T03:35:51.524Z,80.4
2019-02-11T03:36:51.423Z,80.5
2019-02-11T03:37:51.295Z,81.2
2019-02-11T03:38:51.217Z,80.5
2019-02-11T03:39:51.114Z,80.5
2019-02-11T03:40:51.041Z,80.6
2019-02-11T03:41:50.940Z,80.6
2019-02-11T03:42:50.861Z,81.1
2019-02-11T03:43:51.179Z,81
2019-02-11T03:53:49.207Z,78.5
2019-02-11T03:54:49.119Z,79.4
2019-02-11T03:55:49.067Z,79.7
2019-02-11T03:56:48.986Z,80.3
2019-02-11T03:57:48.888Z,80.7
2019-02-11T03:58:48.800Z,81
2019-02-11T03:59:48.677Z,81.4
2019-02-11T04:00:48.590Z,82.3
2019-02-11T04:01:48.505Z,82.9
2019-02-11T04:02:48.391Z,83.2
2019-02-11T04:03:48.703Z,83.9
2019-02-11T04:04:48.589Z,84.3
2019-02-11T04:05:48.523Z,84.2
2019-02-11T04:06:48.510Z,84.9
2019-02-11T04:07:48.391Z,85.2
2019-02-11T04:08:48.359Z,85.6
2019-02-11T04:09:48.258Z,85.8
2019-02-11T04:10:48.142Z,86.9
2019-02-11T04:11:48.051Z,87.2
2019-02-11T04:12:47.937Z,87.2
2019-02-11T04:13:48.253Z,87.9
2019-02-11T04:23:48.680Z,84.1
2019-02-11T04:24:48.584Z,84.7
2019-02-11T04:25:48.488Z,85.7
2019-02-11T04:26:48.399Z,85.8
2019-02-11T04:27:48.311Z,85.9
2019-02-11T04:28:48.277Z,86
2019-02-11T04:29:48.200Z,86.2
2019-02-11T04:30:48.100Z,87
2019-02-11T04:31:47.996Z,87.4
2019-02-11T04:32:47.892Z,87.4
2019-02-11T04:33:48.233Z,87.3
2019-02-11T04:34:48.125Z,87.5
2019-02-11T04:35:48.015Z,87.4
2019-02-11T04:36:47.996Z,88.1
2019-02-11T04:37:47.882Z,88.2
2019-02-11T04:38:47.760Z,88.3
2019-02-11T04:39:47.655Z,88.2
2019-02-11T04:40:47.548Z,87.3
2019-02-11T04:41:47.471Z,87.7
2019-02-11T04:42:47.367Z,87.8
2019-02-11T04:43:47.674Z,87.6
2019-02-11T04:44:47.595Z,88.3
2019-02-11T04:45:47.470Z,88.4
2019-02-11T04:46:47.407Z,88.3
2019-02-11T04:47:47.334Z,88.1
2019-02-11T04:48:47.235Z,87.9
2019-02-11T04:49:47.121Z,88
2019-02-11T04:50:47.029Z,87.4
2019-02-11T04:51:46.960Z,87.8
2019-02-11T04:52:46.874Z,87.6
2019-02-11T04:53:47.190Z,87.2
2019-02-11T04:54:47.092Z,87.4
2019-02-11T04:55:46.988Z,87.2
2019-02-11T04:56:46.930Z,86.5
2019-02-11T04:57:46.832Z,86.1
2019-02-11T04:58:46.740Z,86.4
2019-02-11T04:59:46.637Z,86
2019-02-11T05:00:46.550Z,86.1
2019-02-11T05:01:46.492Z,85.6
2019-02-11T05:02:46.381Z,85.8
2019-02-11T05:03:46.736Z,85.9
2019-02-11T05:04:46.627Z,85.5
2019-02-11T05:05:46.540Z,85.5
2019-02-11T05:06:46.446Z,85.6
2019-02-11T05:07:46.396Z,85.5
2019-02-11T05:08:46.275Z,85.6
2019-02-11T05:09:46.172Z,85.4
2019-02-11T05:10:46.056Z,85.3
2019-02-11T05:11:45.945Z,85.2
2019-02-11T05:12:45.844Z,85.1
2019-02-11T05:13:46.286Z,85
2019-02-11T05:14:46.179Z,85.1
2019-02-11T05:15:46.134Z,84.7
2019-02-11T05:16:46.041Z,84.6
2019-02-11T05:17:45.957Z,84.5
2019-02-11T05:18:45.888Z,84.5
2019-02-11T05:19:45.813Z,84.3
2019-02-11T05:20:45.716Z,84.5
2019-02-11T05:21:45.670Z,84.7
2019-02-11T05:22:45.624Z,84.9
2019-02-11T05:23:46.022Z,84
2019-02-11T05:33:44.067Z,81.6
2019-02-11T05:34:44.000Z,82
2019-02-11T05:35:43.909Z,82.4
2019-02-11T05:36:43.820Z,82.8
2019-02-11T05:37:44.952Z,83.3
2019-02-11T05:38:44.846Z,83.6
2019-02-11T05:39:44.763Z,83.6
2019-02-11T05:40:44.646Z,83.5
2019-02-11T05:41:44.552Z,83
2019-02-11T05:42:44.436Z,83
2019-02-11T05:43:44.784Z,83
2019-02-11T05:44:54.820Z,83
2019-02-11T05:45:54.720Z,83.3
2019-02-11T05:46:54.610Z,83.7
2019-02-11T05:47:54.509Z,83.4
2019-02-11T05:48:54.392Z,83.6
2019-02-11T05:49:54.284Z,83.7
2019-02-11T05:50:54.213Z,83.2
2019-02-11T05:51:54.128Z,83.6
2019-02-11T05:52:54.034Z,83.3
2019-02-11T05:53:54.347Z,83.4
2019-02-11T05:54:54.285Z,82.9
2019-02-11T05:55:57.220Z,82.9
2019-02-11T05:56:57.112Z,82.7
2019-02-11T05:57:57.034Z,82.6
2019-02-11T05:58:56.934Z,82.9
2019-02-11T05:59:56.848Z,82.8
2019-02-11T06:00:56.744Z,82.7
2019-02-11T06:01:56.625Z,82.3
2019-02-11T06:02:56.518Z,82.6
2019-02-11T06:03:56.874Z,82.6
2019-02-11T06:04:56.863Z,82.6
2019-02-11T06:05:56.781Z,82.3
2019-02-11T06:06:56.683Z,82.5
2019-02-11T06:07:56.610Z,82.6
2019-02-11T06:08:56.573Z,82.3
2019-02-11T06:09:56.511Z,82.3
2019-02-11T06:10:56.404Z,82.3
2019-02-11T06:11:56.292Z,82.5
2019-02-11T06:12:56.184Z,82.3
2019-02-11T06:13:56.536Z,82.2
2019-02-11T06:15:05.443Z,82.1
2019-02-11T06:16:05.356Z,81.8
2019-02-11T06:17:05.247Z,82
2019-02-11T06:18:05.149Z,82.1
2019-02-11T06:19:05.060Z,82.3
2019-02-11T06:20:04.997Z,82.3
2019-02-11T06:21:04.933Z,82.4
2019-02-11T06:22:04.844Z,82.6
2019-02-11T06:23:04.767Z,83.5
2019-02-11T06:24:05.089Z,83.1
2019-02-11T06:25:05.025Z,83.9
2019-02-11T06:26:04.985Z,84.7
2019-02-11T06:27:04.910Z,84.8
2019-02-11T06:28:04.814Z,85.5
2019-02-11T06:29:04.701Z,85.9
2019-02-11T06:30:04.605Z,86
2019-02-11T06:31:04.531Z,86.2
2019-02-11T06:32:04.447Z,86.3
2019-02-11T06:33:04.341Z,86.7
2019-02-11T06:34:04.667Z,86.5
2019-02-11T06:44:11.837Z,84.6
2019-02-11T06:45:14.106Z,85
2019-02-11T06:46:13.995Z,85.5
2019-02-11T06:47:13.887Z,85.6
2019-02-11T06:48:13.799Z,85.7
2019-02-11T06:49:13.689Z,86
2019-02-11T06:50:13.601Z,86.1
2019-02-11T06:51:13.517Z,86.6
2019-02-11T06:52:13.412Z,86.8
2019-02-11T06:53:13.325Z,87
2019-02-11T06:54:13.633Z,87.6
2019-02-11T06:55:13.515Z,87.7
2019-02-11T06:56:13.410Z,88.2
2019-02-11T06:57:13.373Z,88.6
2019-02-11T06:58:13.279Z,88.7
2019-02-11T06:59:13.193Z,89.1
2019-02-11T07:00:13.067Z,89.2
2019-02-11T07:01:12.943Z,89.1
2019-02-11T07:02:12.990Z,89.1
2019-02-11T07:03:12.884Z,89.2
2019-02-11T07:04:13.245Z,89.4
2019-02-11T07:05:13.143Z,89.3
2019-02-11T07:06:13.058Z,89.5
2019-02-11T07:07:12.935Z,89.8
2019-02-11T07:08:12.847Z,89.8
2019-02-11T07:09:12.756Z,90.1
2019-02-11T07:10:12.634Z,90.1
2019-02-11T07:11:12.573Z,90.1
2019-02-11T07:12:12.463Z,90.2
2019-02-11T07:13:12.363Z,90.3
2019-02-11T07:14:12.715Z,90.3
2019-02-11T07:15:22.526Z,90.2
2019-02-11T07:16:22.493Z,90.4
2019-02-11T07:17:22.398Z,90.4
2019-02-11T07:18:22.271Z,90.2
2019-02-11T07:19:22.197Z,90.3
2019-02-11T07:20:22.124Z,90.3
2019-02-11T07:21:22.014Z,90.3
2019-02-11T07:22:21.893Z,90.2
2019-02-11T07:23:21.787Z,90.2
2019-02-11T07:24:22.116Z,90.3
2019-02-11T07:25:22.074Z,90.3
2019-02-11T07:26:21.979Z,90.3
2019-02-11T07:27:21.963Z,90.3
2019-02-11T07:28:21.841Z,90.6
2019-02-11T07:29:21.723Z,90.5
2019-02-11T07:30:21.617Z,90.4
2019-02-11T07:31:21.495Z,90.4
2019-02-11T07:32:21.378Z,90.3
2019-02-11T07:33:21.254Z,90.4
2019-02-11T07:34:21.586Z,90.4
2019-02-11T07:35:21.494Z,90.4
2019-02-11T07:36:21.403Z,90.3
2019-02-11T07:37:21.296Z,90.2
2019-02-11T07:38:24.132Z,90.2
2019-02-11T07:39:24.031Z,90.1
2019-02-11T07:40:23.930Z,90.2
2019-02-11T07:41:23.821Z,90.3
2019-02-11T07:42:23.763Z,90.1
2019-02-11T07:43:23.663Z,90.3
2019-02-11T07:44:23.997Z,90.2
2019-02-11T07:45:30.950Z,90.3
2019-02-11T07:46:30.843Z,90.4
2019-02-11T07:47:30.768Z,90.2
2019-02-11T07:48:30.650Z,90.3
2019-02-11T07:49:30.548Z,90.4
2019-02-11T07:50:30.522Z,90.3
2019-02-11T07:51:30.414Z,90.4
2019-02-11T07:52:33.295Z,90.4
2019-02-11T07:53:33.204Z,90.6
2019-02-11T07:54:33.511Z,90.6
2019-02-11T07:55:33.425Z,90.7
2019-02-11T07:56:33.308Z,90.8
2019-02-11T07:57:33.204Z,90.8
2019-02-11T07:58:33.124Z,90.7
2019-02-11T07:59:33.025Z,90.7
2019-02-11T08:00:32.932Z,90.8
2019-02-11T08:01:32.824Z,90.7
2019-02-11T08:02:32.712Z,90.7
2019-02-11T08:03:32.606Z,90.7
2019-02-11T08:04:32.942Z,90.9
2019-02-11T08:05:32.844Z,91
2019-02-11T08:06:32.770Z,90.9
2019-02-11T08:07:32.661Z,90.9
2019-02-11T08:08:32.544Z,91
2019-02-11T08:09:32.426Z,91
2019-02-11T08:10:32.333Z,90.9
2019-02-11T08:11:32.227Z,91
2019-02-11T08:12:32.119Z,91
2019-02-11T08:13:31.996Z,90.9
2019-02-11T08:14:32.406Z,90.9
2019-02-11T08:15:39.359Z,90.9
2019-02-11T08:16:39.238Z,90.8
2019-02-11T08:17:39.162Z,90.8
2019-02-11T08:18:39.100Z,90.6
2019-02-11T08:19:39.002Z,90.6
2019-02-11T08:20:38.942Z,90.7
2019-02-11T08:21:38.832Z,90.7
2019-02-11T08:22:38.714Z,90.6
2019-02-11T08:23:38.593Z,90.5
2019-02-11T08:24:38.894Z,90.8
2019-02-11T08:25:38.809Z,90.7
2019-02-11T08:26:38.705Z,90.8
2019-02-11T08:27:38.607Z,90.7
2019-02-11T08:28:38.496Z,90.6
2019-02-11T08:29:38.362Z,90.8
2019-02-11T08:30:38.316Z,90.6
2019-02-11T08:31:38.194Z,90.7
2019-02-11T08:32:38.070Z,90.8
2019-02-11T08:33:37.976Z,90.7
2019-02-11T08:34:38.343Z,90.8
2019-02-11T08:35:38.246Z,90.8
2019-02-11T08:36:38.196Z,90.8
2019-02-11T08:37:38.108Z,91.1
2019-02-11T08:38:38.056Z,90.9
2019-02-11T08:39:37.938Z,90.7
2019-02-11T08:40:37.874Z,90.7
2019-02-11T08:41:37.786Z,91
2019-02-11T08:42:37.685Z,91
2019-02-11T08:43:37.589Z,90.7
2019-02-11T08:44:38.042Z,90.9
2019-02-11T08:45:37.931Z,91.8
2019-02-11T08:46:37.860Z,90.9
2019-02-11T08:47:37.759Z,91
2019-02-11T08:48:37.649Z,90.9
2019-02-11T08:49:37.635Z,91
2019-02-11T08:50:37.738Z,91
2019-02-11T08:51:37.690Z,91.1
2019-02-11T08:52:37.622Z,91.1
2019-02-11T08:53:37.512Z,91.1
2019-02-11T08:54:37.832Z,91
2019-02-11T08:55:37.712Z,90.9
2019-02-11T08:56:37.597Z,90.8
2019-02-11T08:57:37.518Z,90.8
2019-02-11T08:58:37.447Z,91.6
2019-02-11T08:59:37.353Z,92.8
2019-02-11T09:00:37.255Z,93.1
2019-02-11T09:01:37.160Z,92.7
2019-02-11T09:02:37.069Z,92.8
2019-02-11T09:03:37.052Z,92.7
2019-02-11T09:04:37.371Z,92.5
2019-02-11T09:05:37.269Z,92.5
2019-02-11T09:06:37.171Z,92.2
2019-02-11T09:07:37.094Z,92
2019-02-11T09:08:37.011Z,92.2
2019-02-11T09:09:36.901Z,92
2019-02-11T09:10:36.817Z,92.1
2019-02-11T09:11:36.725Z,91.8
2019-02-11T09:12:36.624Z,91.6
2019-02-11T09:13:36.545Z,91.8
2019-02-11T09:14:36.932Z,91.8
2019-02-11T09:15:36.827Z,91.9
2019-02-11T09:16:36.733Z,91.9
2019-02-11T09:17:39.407Z,91.8
2019-02-11T09:18:39.341Z,91.9
2019-02-11T09:19:39.251Z,91.6
2019-02-11T09:20:39.191Z,91.8
2019-02-11T09:21:39.085Z,91.8
2019-02-11T09:22:38.989Z,91.7
2019-02-11T09:23:38.901Z,91.6
2019-02-11T09:24:39.264Z,91.5
2019-02-11T09:25:39.159Z,91.6
2019-02-11T09:26:39.065Z,90.9
2019-02-11T09:27:38.961Z,90.8
2019-02-11T09:34:39.417Z,89.5
2019-02-11T09:35:39.309Z,90.2
2019-02-11T09:36:39.193Z,90
2019-02-11T09:37:39.090Z,90
2019-02-11T09:38:38.978Z,89.9
2019-02-11T09:39:38.932Z,90.1
2019-02-11T09:40:38.830Z,90
2019-02-11T09:41:38.707Z,90.1
2019-02-11T09:42:38.601Z,90.3
2019-02-11T09:43:38.491Z,90.5
2019-02-11T09:44:38.791Z,90.5
2019-02-11T09:45:38.689Z,90.5
2019-02-11T09:46:38.589Z,90.5
2019-02-11T09:47:38.493Z,90.5
2019-02-11T09:48:40.293Z,90.5
2019-02-11T09:49:40.174Z,90.4
2019-02-11T09:50:40.075Z,90.5
2019-02-11T09:51:39.981Z,90.4
2019-02-11T09:52:39.894Z,90.5
2019-02-11T09:53:39.795Z,90.4
2019-02-11T09:54:40.109Z,90.7
2019-02-11T09:55:40.099Z,90.7
2019-02-11T09:56:40.019Z,90.5
2019-02-11T09:57:39.891Z,90.4
2019-02-11T09:58:39.809Z,90.4
2019-02-11T09:59:40.206Z,90.6
2019-02-11T10:00:40.104Z,90.8
2019-02-11T10:01:39.984Z,90.7
2019-02-11T10:02:39.991Z,90.7
2019-02-11T10:03:39.881Z,91
2019-02-11T10:04:40.179Z,90.8
2019-02-11T10:05:40.059Z,90.5
2019-02-11T10:06:39.928Z,90.7
2019-02-11T10:07:39.862Z,90.6
2019-02-11T10:08:39.771Z,90.7
2019-02-11T10:09:39.665Z,90.6
2019-02-11T10:10:39.553Z,91
2019-02-11T10:11:39.448Z,91
2019-02-11T10:12:39.367Z,91
2019-02-11T10:13:39.279Z,90.9
2019-02-11T10:14:39.647Z,91.1
2019-02-11T10:15:39.545Z,91.1
2019-02-11T10:16:39.430Z,90.8
2019-02-11T10:17:39.315Z,90.6
2019-02-11T10:21:38.389Z,89.2
2019-02-11T10:23:38.080Z,89.1
2019-02-11T10:24:38.452Z,89.2
2019-02-11T10:25:38.376Z,89.7
2019-02-11T10:26:38.283Z,90
2019-02-11T10:27:38.169Z,90
2019-02-11T10:28:38.072Z,90
2019-02-11T10:29:37.991Z,90
2019-02-11T10:30:37.871Z,90.1
2019-02-11T10:31:37.771Z,90.2
2019-02-11T10:32:37.765Z,90.2
2019-02-11T10:33:37.657Z,90.4
2019-02-11T10:34:38.036Z,90.3
2019-02-11T10:35:43.125Z,90.4
2019-02-11T10:36:43.039Z,90.2
2019-02-11T10:37:42.952Z,90.4
2019-02-11T10:38:42.845Z,90.3
2019-02-11T10:39:42.754Z,90.3
2019-02-11T10:40:42.643Z,90.2
2019-02-11T10:41:42.547Z,90
2019-02-11T10:42:42.465Z,89.9
2019-02-11T10:43:42.346Z,89.8
2019-02-11T10:44:42.673Z,89.6
2019-02-11T10:45:42.583Z,89.5
2019-02-11T10:46:42.471Z,89.9
2019-02-11T10:47:42.350Z,89.1
2019-02-11T10:48:42.230Z,89
2019-02-11T10:49:42.127Z,89.5
2019-02-11T10:50:42.051Z,89.1
2019-02-11T10:51:41.954Z,89.2
2019-02-11T10:52:41.852Z,89.2
2019-02-11T10:53:41.743Z,89
2019-02-11T10:54:42.038Z,88.8
2019-02-11T10:55:41.921Z,88.6
2019-02-11T10:56:41.828Z,88.5
2019-02-11T10:57:41.699Z,88.6
2019-02-11T10:58:41.586Z,88.3
2019-02-11T10:59:41.484Z,88.5
2019-02-11T11:00:41.376Z,88.9
2019-02-11T11:01:41.274Z,88.6
2019-02-11T11:02:41.164Z,88.9
2019-02-11T11:03:41.068Z,89.1
2019-02-11T11:04:41.371Z,88.9
2019-02-11T11:05:41.287Z,88.4
2019-02-11T11:06:41.248Z,87.8
2019-02-11T11:07:41.158Z,88.5
2019-02-11T11:08:41.022Z,88.7
2019-02-11T11:09:40.910Z,88.6
2019-02-11T11:10:40.788Z,88.1
2019-02-11T11:11:40.708Z,88.1
2019-02-11T11:12:40.602Z,88.3
2019-02-11T11:13:40.494Z,87.5
2019-02-11T11:14:40.801Z,87.4
2019-02-11T11:15:40.685Z,87.8
2019-02-11T11:16:40.571Z,88.1
2019-02-11T11:17:40.472Z,88.1
2019-02-11T11:18:40.388Z,87.7
2019-02-11T11:19:40.277Z,89.5
2019-02-11T11:20:40.181Z,89.4
2019-02-11T11:21:40.065Z,88.5
2019-02-11T11:22:39.975Z,89.4
2019-02-11T11:23:39.887Z,90
2019-02-11T11:24:40.236Z,89.9
2019-02-11T11:25:40.176Z,88.9
2019-02-11T11:26:40.064Z,89.5
2019-02-11T11:27:39.983Z,89.3
2019-02-11T11:28:39.873Z,89.3
2019-02-11T11:29:39.748Z,89.5
2019-02-11T11:30:39.626Z,90.1
2019-02-11T11:31:39.514Z,89.5
2019-02-11T11:32:39.412Z,89.2
2019-02-11T11:33:39.308Z,89.4
2019-02-11T11:34:39.618Z,89.5
2019-02-11T11:35:39.514Z,89.4
2019-02-11T11:36:39.414Z,89.6
2019-02-11T11:37:39.294Z,89.7
2019-02-11T11:38:39.225Z,89.7
2019-02-11T11:39:39.106Z,90
2019-02-11T11:40:39.000Z,90
2019-02-11T11:41:38.866Z,90.2
2019-02-11T11:42:38.764Z,90.3
2019-02-11T11:43:38.686Z,90.4
2019-02-11T11:44:38.996Z,90.5
2019-02-11T11:45:38.880Z,90.7
2019-02-11T11:46:47.876Z,90.8
2019-02-11T11:47:47.792Z,90.7
2019-02-11T11:48:47.735Z,90.7
2019-02-11T11:49:47.642Z,90.7
2019-02-11T11:50:47.514Z,90.7
2019-02-11T11:51:47.414Z,90.8
2019-02-11T11:52:47.300Z,91
2019-02-11T11:53:47.214Z,91
2019-02-11T11:54:47.566Z,90.9
2019-02-11T11:55:47.534Z,90.9
2019-02-11T11:56:47.549Z,91
2019-02-11T11:57:47.624Z,91.1
2019-02-11T11:58:47.658Z,91.1
2019-02-11T11:59:47.641Z,91.1
2019-02-11T12:00:47.707Z,91.1
2019-02-11T12:01:47.664Z,91.3
2019-02-11T12:03:06.532Z,91.3
2019-02-11T12:04:07.603Z,91
2019-02-11T12:05:08.082Z,91
2019-02-11T12:06:08.089Z,91.1
2019-02-11T12:07:08.125Z,91.3
2019-02-11T12:08:08.092Z,91.3
2019-02-11T12:09:08.060Z,91.2
2019-02-11T12:10:08.062Z,91.1
2019-02-11T12:11:08.185Z,91.1
2019-02-11T12:12:08.173Z,91.4
2019-02-11T12:13:24.443Z,91.2
2019-02-11T12:14:24.510Z,91.1
2019-02-11T12:15:25.085Z,91.2
2019-02-11T12:16:25.011Z,91.3
2019-02-11T12:17:24.993Z,91.2
2019-02-11T12:18:24.997Z,91.2
2019-02-11T12:19:25.002Z,91
2019-02-11T12:20:25.124Z,90.9
2019-02-11T12:21:25.103Z,91.2
2019-02-11T12:22:25.077Z,91.2
2019-02-11T12:23:25.055Z,91.3
2019-02-11T12:24:25.003Z,91.2
2019-02-11T12:25:25.821Z,91.3
2019-02-11T12:26:25.783Z,91.1
2019-02-11T12:27:25.956Z,91
2019-02-11T12:28:25.969Z,90.9
2019-02-11T12:29:26.085Z,91.1
2019-02-11T12:30:26.151Z,91.1
2019-02-11T12:31:26.249Z,91.1
2019-02-11T12:32:26.175Z,91.5
2019-02-11T12:33:26.152Z,90.8
2019-02-11T12:34:26.098Z,90.9
2019-02-11T12:35:26.674Z,90.9
2019-02-11T12:36:26.654Z,91.2
2019-02-11T12:37:26.630Z,90.9
2019-02-11T12:38:26.709Z,90.8
2019-02-11T12:39:26.652Z,90.8
2019-02-11T12:40:26.654Z,91
2019-02-11T12:41:26.698Z,91.1
2019-02-11T12:42:26.659Z,90.8
2019-02-11T12:43:26.658Z,90.9
2019-02-11T12:44:26.703Z,90.8
2019-02-11T12:45:27.286Z,90.9
2019-02-11T12:46:27.289Z,91
2019-02-11T12:47:27.263Z,91.1
2019-02-11T12:48:27.202Z,90.9
2019-02-11T12:49:27.188Z,91
2019-02-11T12:50:27.381Z,91
2019-02-11T12:51:27.393Z,90.7
2019-02-11T12:52:27.397Z,90.8
2019-02-11T12:53:27.427Z,90.5
2019-02-11T12:54:27.383Z,90.7
2019-02-11T12:55:28.024Z,90.8
2019-02-11T12:56:28.075Z,90.5
2019-02-11T12:57:28.067Z,90.4
2019-02-11T12:58:28.014Z,90.6
2019-02-11T12:59:27.994Z,90.3
2019-02-11T13:00:27.969Z,90.5
2019-02-11T13:01:27.987Z,90.4
2019-02-11T13:02:28.297Z,90.4
2019-02-11T13:03:28.240Z,90.4
2019-02-11T13:04:28.333Z,90.1
2019-02-11T13:05:47.189Z,90.2
2019-02-11T13:06:47.408Z,90.2
2019-02-11T13:07:47.390Z,89.8
2019-02-11T13:08:47.317Z,89.6
2019-02-11T13:09:47.485Z,89.5
2019-02-11T13:10:47.513Z,89.3
2019-02-11T13:11:47.480Z,88.8
2019-02-11T13:12:47.538Z,88
2019-02-11T13:13:47.599Z,88.2
2019-02-11T13:14:47.796Z,88
2019-02-11T13:16:33.748Z,88.3
2019-02-11T13:17:35.743Z,88.8
2019-02-11T13:18:41.006Z,87.9
2019-02-11T13:19:41.361Z,86.9
2019-02-11T13:20:41.325Z,87.7
2019-02-11T13:21:41.382Z,87.3
2019-02-11T13:22:41.351Z,86.9
2019-02-11T13:23:41.453Z,87.3
2019-02-11T13:24:41.403Z,87.3
2019-02-11T13:25:41.370Z,86.7
2019-02-11T13:26:41.897Z,87.5
2019-02-11T13:27:41.861Z,86
2019-02-11T13:28:41.883Z,85.4
2019-02-11T13:29:41.925Z,85.7
2019-02-11T13:30:42.013Z,84.6
2019-02-11T13:31:42.040Z,84.5
2019-02-11T13:33:41.828Z,84.3
2019-02-11T13:34:41.820Z,83
2019-02-11T13:36:42.105Z,82.5
2019-02-11T13:37:42.188Z,82.7
2019-02-11T13:38:42.191Z,83
2019-02-11T13:39:42.174Z,83.3
2019-02-11T13:40:42.196Z,83.5
2019-02-11T13:41:42.181Z,83.4
2019-02-11T13:42:42.428Z,83.4
2019-02-11T13:43:42.433Z,82.8
2019-02-11T13:44:42.422Z,83.6
2019-02-11T13:45:42.401Z,83.3
2019-02-11T13:46:42.953Z,82.9
2019-02-11T13:47:59.261Z,83
2019-02-11T13:48:59.408Z,84.1
2019-02-11T13:49:59.417Z,83.4
2019-02-11T13:50:59.420Z,82.9
2019-02-11T13:51:59.385Z,84.1
2019-02-11T13:52:59.432Z,85
2019-02-11T13:53:59.397Z,84.2
2019-02-11T13:54:59.349Z,84.7
2019-02-11T13:55:59.333Z,85.2
2019-02-11T13:56:59.897Z,83.6
2019-02-11T13:57:59.934Z,84
2019-02-11T13:58:59.932Z,84.2
2019-02-11T13:59:59.916Z,84.8
2019-02-11T14:01:00.190Z,83.9
2019-02-11T14:02:00.185Z,84.2
2019-02-11T14:03:00.151Z,83.9
2019-02-11T14:04:00.192Z,84.6
2019-02-11T14:05:00.438Z,84.6
2019-02-11T14:06:00.647Z,85.1
2019-02-11T14:07:01.154Z,84.3
2019-02-11T14:08:01.154Z,84.3
2019-02-11T14:09:01.178Z,84.5
2019-02-11T14:10:03.407Z,84.2
2019-02-11T14:11:03.381Z,84.2
2019-02-11T14:12:03.359Z,84.4
2019-02-11T14:13:03.330Z,84.6
2019-02-11T14:14:04.955Z,84.3
2019-02-11T14:15:04.984Z,84.1
2019-02-11T14:16:04.955Z,84.7
2019-02-11T14:17:05.502Z,84.5
2019-02-11T14:18:16.545Z,84.6
2019-02-11T14:19:16.556Z,84.5
2019-02-11T14:20:16.523Z,84.9
2019-02-11T14:21:16.461Z,84
2019-02-11T14:22:16.402Z,84.3
2019-02-11T14:23:16.412Z,84.7
2019-02-11T14:24:16.418Z,84
2019-02-11T14:25:16.385Z,84.1
2019-02-11T14:26:16.352Z,84.5
2019-02-11T14:27:16.863Z,84
2019-02-11T14:28:16.829Z,84.3
2019-02-11T14:29:16.840Z,84.7
2019-02-11T14:30:16.850Z,84.9
2019-02-11T14:32:16.640Z,82.4
2019-02-11T14:33:16.630Z,82
2019-02-11T14:34:16.625Z,81.3
2019-02-11T14:35:16.654Z,81.2
2019-02-11T14:37:17.171Z,81.2
2019-02-11T14:38:17.166Z,81.9
2019-02-11T14:39:17.179Z,82
2019-02-11T14:40:17.183Z,81.7
2019-02-11T14:41:17.212Z,82.1
2019-02-11T14:42:17.210Z,82.5
2019-02-11T14:43:17.204Z,82.6
2019-02-11T14:44:17.311Z,82.7
2019-02-11T14:45:17.425Z,82.1
2019-02-11T14:46:17.393Z,82.3